createdAt,value
2019-03-23T00:00:55.591Z,6.72
2019-03-23T00:01:55.584Z,6.64
2019-03-23T00:02:55.622Z,6.66
2019-03-23T00:03:55.611Z,6.69
2019-03-23T00:04:55.550Z,6.70
2019-03-23T00:05:55.578Z,6.70
2019-03-23T00:06:55.882Z,6.70
2019-03-23T00:07:55.518Z,6.72
2019-03-23T00:08:55.508Z,6.70
2019-03-23T00:09:55.502Z,6.74
2019-03-23T00:10:55.483Z,6.66
2019-03-23T00:11:55.531Z,6.69
2019-03-23T00:12:55.460Z,6.75
2019-03-23T00:13:55.449Z,6.72
2019-03-23T00:14:56.412Z,6.66
2019-03-23T00:15:55.422Z,6.69
2019-03-23T00:16:55.431Z,6.62
2019-03-23T00:17:55.471Z,6.62
2019-03-23T00:18:55.406Z,6.63
2019-03-23T00:19:55.391Z,6.64
2019-03-23T00:20:55.380Z,6.60
2019-03-23T00:21:55.398Z,6.52
2019-03-23T00:22:55.355Z,6.62
2019-03-23T00:23:55.452Z,6.49
2019-03-23T00:24:55.331Z,6.57
2019-03-23T00:25:55.327Z,6.51
2019-03-23T00:26:55.307Z,6.52
2019-03-23T00:27:55.314Z,6.56
2019-03-23T00:28:55.284Z,6.57
2019-03-23T00:29:55.334Z,6.59
2019-03-23T00:30:55.262Z,6.41
2019-03-23T00:31:55.255Z,6.56
2019-03-23T00:32:55.267Z,6.52
2019-03-23T00:33:55.234Z,6.51
2019-03-23T00:34:55.290Z,6.45
2019-03-23T00:35:55.212Z,6.46
2019-03-23T00:36:55.215Z,6.39
2019-03-23T00:37:55.194Z,6.48
2019-03-23T00:38:55.176Z,6.45
2019-03-23T00:39:55.164Z,6.46
2019-03-23T00:40:55.224Z,6.39
2019-03-23T00:41:55.146Z,6.38
2019-03-23T00:42:55.142Z,6.35
2019-03-23T00:43:55.121Z,6.30
2019-03-23T00:44:55.118Z,6.38
2019-03-23T00:45:55.138Z,6.39
2019-03-23T00:46:55.133Z,6.33
2019-03-23T00:47:55.083Z,6.31
2019-03-23T00:48:55.070Z,6.33
2019-03-23T00:49:55.053Z,6.30
2019-03-23T00:50:55.091Z,6.28
2019-03-23T00:51:55.049Z,6.30
2019-03-23T00:52:55.026Z,6.33
2019-03-23T00:53:55.019Z,6.24
2019-03-23T00:54:55.000Z,6.35
2019-03-23T00:55:54.990Z,6.35
2019-03-23T00:56:55.027Z,6.30
2019-03-23T00:57:54.967Z,6.20
2019-03-23T00:58:55.026Z,6.17
2019-03-23T00:59:54.952Z,6.19
2019-03-23T01:00:54.936Z,6.30
2019-03-23T01:01:54.933Z,6.26
2019-03-23T01:02:54.952Z,6.20
2019-03-23T01:03:54.949Z,6.17
2019-03-23T01:04:54.896Z,6.26
2019-03-23T01:05:54.894Z,6.24
2019-03-23T01:06:54.895Z,6.31
2019-03-23T01:07:54.868Z,6.35
2019-03-23T01:08:54.932Z,6.33
2019-03-23T01:09:54.839Z,6.20
2019-03-23T01:10:54.881Z,6.26
2019-03-23T01:11:54.830Z,6.24
2019-03-23T01:12:54.805Z,6.22
2019-03-23T01:13:54.786Z,6.30
2019-03-23T01:14:54.846Z,6.26
2019-03-23T01:15:54.777Z,6.20
2019-03-23T01:16:54.773Z,6.22
2019-03-23T01:17:54.750Z,6.22
2019-03-23T01:18:54.742Z,6.27
2019-03-23T01:19:54.732Z,6.28
2019-03-23T01:20:54.753Z,6.26
2019-03-23T01:21:54.714Z,6.36
2019-03-23T01:22:54.711Z,6.26
2019-03-23T01:23:54.681Z,6.36
2019-03-23T01:24:54.698Z,6.31
2019-03-23T01:25:54.753Z,6.35
2019-03-23T01:26:54.651Z,6.31
2019-03-23T01:27:54.640Z,6.28
2019-03-23T01:28:54.628Z,6.28
2019-03-23T01:29:54.619Z,6.30
2019-03-23T01:30:54.610Z,6.27
2019-03-23T01:31:54.638Z,6.24
2019-03-23T01:32:54.624Z,6.22
2019-03-23T01:33:54.584Z,6.27
2019-03-23T01:34:54.574Z,6.28
2019-03-23T01:35:54.548Z,6.24
2019-03-23T01:37:02.500Z,6.26
2019-03-23T01:37:55.565Z,6.28
2019-03-23T01:38:54.520Z,6.19
2019-03-23T01:39:54.519Z,6.14
2019-03-23T01:40:54.502Z,6.16
2019-03-23T01:41:54.537Z,6.31
2019-03-23T01:42:54.507Z,6.26
2019-03-23T01:43:54.519Z,6.24
2019-03-23T01:44:54.858Z,6.22
2019-03-23T01:45:54.446Z,6.17
2019-03-23T01:46:54.455Z,6.24
2019-03-23T01:47:54.434Z,6.24
2019-03-23T01:48:54.414Z,6.24
2019-03-23T01:49:54.409Z,6.26
2019-03-23T01:50:54.433Z,6.30
2019-03-23T01:51:54.390Z,6.27
2019-03-23T01:52:54.370Z,6.22
2019-03-23T01:53:54.354Z,6.17
2019-03-23T01:54:54.353Z,6.28
2019-03-23T01:55:54.373Z,6.20
2019-03-23T01:56:54.330Z,6.20
2019-03-23T01:57:54.398Z,6.33
2019-03-23T01:58:54.295Z,6.28
2019-03-23T01:59:54.290Z,6.26
2019-03-23T02:00:54.295Z,6.33
2019-03-23T02:01:54.309Z,6.31
2019-03-23T02:02:54.280Z,6.38
2019-03-23T02:03:54.243Z,6.30
2019-03-23T02:04:54.242Z,6.17
2019-03-23T02:05:54.305Z,6.20
2019-03-23T02:06:54.223Z,6.17
2019-03-23T02:07:54.237Z,6.26
2019-03-23T02:08:54.236Z,6.27
2019-03-23T02:09:54.340Z,6.24
2019-03-23T02:10:54.166Z,6.20
2019-03-23T02:11:54.157Z,6.16
2019-03-23T02:12:54.165Z,6.22
2019-03-23T02:13:54.183Z,6.28
2019-03-23T02:14:54.145Z,6.26
2019-03-23T02:15:54.107Z,6.20
2019-03-23T02:16:54.101Z,6.17
2019-03-23T02:17:54.094Z,6.19
2019-03-23T02:18:54.117Z,6.20
2019-03-23T02:19:54.071Z,6.24
2019-03-23T02:20:54.092Z,6.30
2019-03-23T02:21:54.051Z,6.24
2019-03-23T02:22:54.035Z,6.26
2019-03-23T02:23:54.087Z,6.17
2019-03-23T02:24:54.072Z,6.28
2019-03-23T02:25:54.022Z,6.30
2019-03-23T02:26:54.000Z,6.26
2019-03-23T02:27:53.979Z,6.30
2019-03-23T02:28:53.971Z,6.35
2019-03-23T02:29:53.971Z,6.30
2019-03-23T02:30:54.014Z,6.33
2019-03-23T02:31:53.957Z,6.35
2019-03-23T02:32:53.939Z,6.28
2019-03-23T02:33:53.915Z,6.26
2019-03-23T02:34:53.905Z,6.19
2019-03-23T02:35:53.901Z,6.14
2019-03-23T02:36:53.931Z,6.12
2019-03-23T02:38:00.433Z,6.24
2019-03-23T02:38:53.857Z,6.19
2019-03-23T02:39:53.852Z,6.26
2019-03-23T02:40:53.885Z,6.26
2019-03-23T02:41:53.826Z,6.22
2019-03-23T02:42:53.817Z,6.22
2019-03-23T02:43:53.849Z,6.30
2019-03-23T02:44:53.800Z,6.36
2019-03-23T02:45:53.792Z,6.26
2019-03-23T02:46:53.783Z,6.31
2019-03-23T02:47:53.793Z,6.36
2019-03-23T02:48:53.818Z,6.35
2019-03-23T02:49:53.750Z,6.36
2019-03-23T02:50:53.773Z,6.39
2019-03-23T02:51:53.721Z,6.39
2019-03-23T02:52:53.728Z,6.45
2019-03-23T02:53:53.703Z,6.48
2019-03-23T02:54:53.689Z,6.49
2019-03-23T02:55:53.727Z,6.52
2019-03-23T02:56:53.667Z,6.51
2019-03-23T02:57:53.677Z,6.44
2019-03-23T02:58:53.710Z,6.44
2019-03-23T02:59:53.646Z,6.49
2019-03-23T03:00:53.673Z,6.54
2019-03-23T03:01:53.607Z,6.57
2019-03-23T03:02:53.600Z,6.54
2019-03-23T03:03:53.587Z,6.54
2019-03-23T03:04:53.585Z,6.57
2019-03-23T03:05:53.615Z,6.49
2019-03-23T03:06:53.559Z,6.44
2019-03-23T03:07:53.542Z,6.31
2019-03-23T03:08:53.538Z,6.28
2019-03-23T03:09:53.522Z,6.31
2019-03-23T03:10:53.517Z,6.30
2019-03-23T03:11:53.652Z,6.33
2019-03-23T03:12:53.500Z,6.24
2019-03-23T03:13:53.479Z,6.17
2019-03-23T03:14:53.469Z,6.08
2019-03-23T03:15:53.461Z,6.11
2019-03-23T03:16:53.443Z,6.17
2019-03-23T03:17:53.474Z,6.19
2019-03-23T03:18:53.429Z,6.28
2019-03-23T03:19:53.416Z,6.17
2019-03-23T03:20:53.437Z,6.24
2019-03-23T03:21:53.469Z,6.17
2019-03-23T03:22:53.441Z,6.22
2019-03-23T03:23:53.391Z,6.26
2019-03-23T03:24:53.357Z,6.26
2019-03-23T03:25:53.373Z,6.26
2019-03-23T03:26:53.342Z,6.28
2019-03-23T03:27:53.363Z,6.27
2019-03-23T03:28:53.319Z,6.42
2019-03-23T03:29:53.319Z,6.31
2019-03-23T03:30:53.363Z,6.42
2019-03-23T03:31:53.282Z,6.46
2019-03-23T03:32:53.273Z,6.45
2019-03-23T03:33:53.264Z,6.46
2019-03-23T03:34:53.246Z,6.45
2019-03-23T03:35:53.259Z,6.39
2019-03-23T03:36:53.279Z,6.45
2019-03-23T03:37:56.706Z,6.41
2019-03-23T03:38:53.200Z,6.38
2019-03-23T03:39:53.190Z,6.31
2019-03-23T03:40:53.233Z,6.31
2019-03-23T03:41:53.178Z,6.30
2019-03-23T03:42:53.157Z,6.36
2019-03-23T03:43:53.148Z,6.33
2019-03-23T03:44:53.143Z,6.41
2019-03-23T03:45:53.195Z,6.39
2019-03-23T03:46:53.123Z,6.41
2019-03-23T03:47:53.115Z,6.41
2019-03-23T03:48:53.097Z,6.45
2019-03-23T03:49:53.100Z,6.28
2019-03-23T03:50:53.116Z,6.26
2019-03-23T03:51:53.059Z,6.28
2019-03-23T03:52:53.072Z,6.30
2019-03-23T03:53:53.060Z,6.33
2019-03-23T03:54:53.031Z,6.24
2019-03-23T03:55:53.042Z,6.30
2019-03-23T03:56:53.074Z,6.31
2019-03-23T03:57:53.001Z,6.35
2019-03-23T03:58:53.013Z,6.41
2019-03-23T03:59:52.983Z,6.44
2019-03-23T04:00:52.965Z,6.42
2019-03-23T04:01:52.956Z,6.41
2019-03-23T04:02:53.016Z,6.30
2019-03-23T04:03:52.931Z,6.38
2019-03-23T04:04:52.938Z,6.35
2019-03-23T04:05:52.915Z,6.42
2019-03-23T04:06:52.896Z,6.33
2019-03-23T04:07:52.879Z,6.48
2019-03-23T04:08:52.970Z,6.44
2019-03-23T04:09:52.869Z,6.38
2019-03-23T04:10:52.866Z,6.31
2019-03-23T04:11:52.845Z,6.31
2019-03-23T04:12:52.828Z,6.22
2019-03-23T04:13:52.828Z,6.22
2019-03-23T04:14:52.848Z,6.24
2019-03-23T04:15:52.817Z,6.26
2019-03-23T04:16:52.788Z,6.22
2019-03-23T04:17:52.825Z,6.17
2019-03-23T04:18:52.766Z,6.22
2019-03-23T04:19:52.754Z,6.20
2019-03-23T04:20:52.789Z,6.26
2019-03-23T04:21:52.747Z,6.07
2019-03-23T04:22:52.739Z,6.07
2019-03-23T04:23:52.705Z,6.08
2019-03-23T04:24:52.701Z,6.12
2019-03-23T04:25:52.749Z,6.07
2019-03-23T04:26:52.699Z,6.07
2019-03-23T04:27:52.672Z,6.02
2019-03-23T04:28:52.692Z,6.02
2019-03-23T04:29:52.689Z,5.99
2019-03-23T04:30:52.648Z,5.94
2019-03-23T04:31:52.631Z,6.02
2019-03-23T04:32:52.623Z,5.98
2019-03-23T04:33:52.613Z,5.94
2019-03-23T04:34:52.641Z,5.90
2019-03-23T04:35:52.573Z,5.94
2019-03-23T04:36:52.575Z,5.94
2019-03-23T04:37:52.554Z,5.94
2019-03-23T04:38:52.772Z,5.98
2019-03-23T04:39:52.573Z,6.04
2019-03-23T04:40:52.567Z,6.12
2019-03-23T04:41:52.511Z,6.09
2019-03-23T04:42:52.509Z,6.07
2019-03-23T04:43:52.503Z,6.11
2019-03-23T04:44:52.502Z,6.14
2019-03-23T04:45:52.520Z,6.20
2019-03-23T04:46:52.460Z,6.17
2019-03-23T04:47:52.446Z,6.22
2019-03-23T04:48:52.449Z,6.31
2019-03-23T04:49:52.421Z,6.38
2019-03-23T04:50:52.467Z,6.33
2019-03-23T04:51:52.453Z,6.22
2019-03-23T04:52:52.430Z,6.24
2019-03-23T04:53:52.385Z,6.20
2019-03-23T04:54:52.374Z,6.24
2019-03-23T04:55:52.368Z,6.26
2019-03-23T04:56:52.367Z,6.36
2019-03-23T04:57:52.383Z,6.31
2019-03-23T04:58:52.323Z,6.33
2019-03-23T04:59:52.321Z,6.44
2019-03-23T05:00:52.301Z,6.39
2019-03-23T05:01:52.297Z,6.44
2019-03-23T05:02:52.344Z,6.44
2019-03-23T05:03:52.269Z,6.51
2019-03-23T05:04:52.259Z,6.44
2019-03-23T05:05:52.254Z,6.56
2019-03-23T05:06:52.238Z,6.56
2019-03-23T05:07:52.294Z,6.54
2019-03-23T05:08:52.210Z,6.51
2019-03-23T05:09:52.258Z,6.48
2019-03-23T05:10:52.198Z,6.30
2019-03-23T05:11:52.180Z,6.31
2019-03-23T05:12:52.173Z,6.28
2019-03-23T05:13:52.157Z,6.30
2019-03-23T05:14:52.180Z,6.28
2019-03-23T05:15:52.140Z,6.39
2019-03-23T05:16:52.134Z,6.38
2019-03-23T05:17:52.121Z,6.42
2019-03-23T05:18:52.108Z,6.49
2019-03-23T05:19:52.159Z,6.45
2019-03-23T05:20:52.085Z,6.41
2019-03-23T05:21:52.074Z,6.36
2019-03-23T05:22:52.076Z,6.36
2019-03-23T05:23:52.060Z,6.31
2019-03-23T05:24:52.048Z,6.33
2019-03-23T05:25:52.070Z,6.35
2019-03-23T05:26:52.013Z,6.33
2019-03-23T05:27:52.015Z,6.28
2019-03-23T05:28:52.017Z,6.28
2019-03-23T05:29:51.995Z,6.33
2019-03-23T05:30:52.022Z,6.30
2019-03-23T05:31:52.007Z,6.38
2019-03-23T05:32:51.946Z,6.46
2019-03-23T05:33:51.948Z,6.46
2019-03-23T05:34:51.927Z,6.56
2019-03-23T05:35:51.923Z,6.52
2019-03-23T05:36:51.910Z,6.60
2019-03-23T05:37:52.076Z,6.54
2019-03-23T05:38:51.978Z,6.48
2019-03-23T05:39:51.882Z,6.52
2019-03-23T05:40:51.876Z,6.52
2019-03-23T05:41:51.863Z,6.48
2019-03-23T05:42:51.914Z,6.56
2019-03-23T05:43:51.876Z,6.51
2019-03-23T05:44:51.831Z,6.49
2019-03-23T05:45:51.824Z,6.51
2019-03-23T05:46:54.182Z,6.41
2019-03-23T05:47:51.846Z,6.27
2019-03-23T05:48:51.788Z,6.26
2019-03-23T05:49:51.771Z,6.12
2019-03-23T05:50:51.751Z,6.24
2019-03-23T05:51:51.751Z,6.20
2019-03-23T05:52:51.728Z,6.31
2019-03-23T05:53:51.783Z,6.36
2019-03-23T05:54:51.712Z,6.30
2019-03-23T05:55:51.709Z,6.39
2019-03-23T05:56:51.709Z,6.56
2019-03-23T05:57:51.913Z,6.52
2019-03-23T05:58:51.672Z,6.63
2019-03-23T05:59:51.657Z,6.72
2019-03-23T06:00:51.660Z,6.75
2019-03-23T06:01:51.639Z,6.85
2019-03-23T06:02:51.630Z,6.85
2019-03-23T06:03:51.685Z,6.85
2019-03-23T06:04:51.607Z,6.85
2019-03-23T06:05:51.590Z,6.87
2019-03-23T06:06:51.615Z,6.87
2019-03-23T06:07:51.573Z,6.79
2019-03-23T06:08:55.277Z,6.88
2019-03-23T06:09:51.595Z,6.84
2019-03-23T06:10:51.582Z,6.72
2019-03-23T06:11:51.528Z,6.82
2019-03-23T06:12:51.628Z,6.79
2019-03-23T06:13:51.500Z,6.84
2019-03-23T06:14:51.505Z,6.87
2019-03-23T06:15:51.482Z,6.85
2019-03-23T06:16:51.533Z,7.02
2019-03-23T06:17:51.467Z,7.05
2019-03-23T06:18:51.467Z,7.23
2019-03-23T06:19:51.449Z,7.32
2019-03-23T06:20:51.435Z,7.32
2019-03-23T06:21:51.456Z,7.24
2019-03-23T06:22:51.414Z,7.32
2019-03-23T06:23:51.408Z,7.38
2019-03-23T06:24:51.463Z,7.38
2019-03-23T06:25:51.385Z,7.38
2019-03-23T06:26:51.357Z,7.50
2019-03-23T06:27:51.392Z,7.54
2019-03-23T06:28:51.337Z,7.72
2019-03-23T06:29:51.350Z,7.75
2019-03-23T06:30:51.342Z,7.88
2019-03-23T06:31:51.315Z,7.80
2019-03-23T06:32:51.373Z,7.82
2019-03-23T06:33:51.290Z,7.70
2019-03-23T06:34:51.281Z,7.85
2019-03-23T06:35:51.299Z,7.85
2019-03-23T06:36:51.252Z,7.87
2019-03-23T06:37:51.300Z,8.03
2019-03-23T06:38:51.485Z,7.98
2019-03-23T06:39:51.995Z,8.09
2019-03-23T06:40:51.221Z,8.15
2019-03-23T06:41:51.242Z,8.27
2019-03-23T06:42:59.360Z,8.36
2019-03-23T06:43:52.258Z,8.48
2019-03-23T06:44:51.164Z,8.52
2019-03-23T06:45:51.240Z,8.66
2019-03-23T06:46:51.187Z,8.73
2019-03-23T06:47:51.129Z,8.74
2019-03-23T06:48:51.125Z,8.94
2019-03-23T06:49:51.111Z,9.13
2019-03-23T06:50:51.146Z,9.19
2019-03-23T06:51:51.130Z,9.34
2019-03-23T06:52:51.100Z,9.55
2019-03-23T06:53:51.067Z,9.65
2019-03-23T06:54:51.053Z,9.72
2019-03-23T06:55:51.063Z,9.92
2019-03-23T06:56:51.076Z,10.09
2019-03-23T06:57:51.030Z,10.20
2019-03-23T06:58:51.012Z,10.31
2019-03-23T06:59:51.064Z,10.78
2019-03-23T07:00:51.003Z,11.05
2019-03-23T07:01:51.058Z,11.18
2019-03-23T07:02:50.985Z,11.11
2019-03-23T07:03:50.995Z,11.29
2019-03-23T07:04:50.975Z,11.51
2019-03-23T07:05:50.991Z,11.40
2019-03-23T07:06:50.920Z,11.29
2019-03-23T07:07:51.001Z,11.43
2019-03-23T07:08:50.904Z,11.55
2019-03-23T07:09:50.897Z,11.73
2019-03-23T07:10:50.879Z,12.12
2019-03-23T07:11:50.872Z,12.58
2019-03-23T07:12:50.871Z,12.98
2019-03-23T07:13:50.910Z,13.59
2019-03-23T07:14:50.844Z,14.03
2019-03-23T07:15:50.832Z,14.44
2019-03-23T07:16:50.810Z,14.44
2019-03-23T07:17:50.801Z,14.60
2019-03-23T07:18:50.820Z,15.72
2019-03-23T07:19:50.834Z,16.21
2019-03-23T07:20:50.838Z,16.42
2019-03-23T07:21:50.761Z,16.50
2019-03-23T07:22:50.752Z,16.64
2019-03-23T07:23:50.736Z,17.20
2019-03-23T07:24:50.719Z,17.79
2019-03-23T07:25:50.714Z,18.11
2019-03-23T07:26:50.742Z,18.45
2019-03-23T07:27:50.698Z,18.60
2019-03-23T07:28:50.727Z,19.14
2019-03-23T07:29:50.665Z,19.77
2019-03-23T07:30:50.660Z,20.32
2019-03-23T07:31:50.698Z,20.50
2019-03-23T07:32:50.649Z,20.75
2019-03-23T07:33:50.621Z,21.00
2019-03-23T07:34:50.612Z,21.30
2019-03-23T07:35:50.615Z,21.58
2019-03-23T07:36:50.599Z,22.26
2019-03-23T07:37:50.625Z,22.93
2019-03-23T07:38:50.582Z,23.47
2019-03-23T07:39:50.629Z,23.50
2019-03-23T07:40:50.565Z,23.18
2019-03-23T07:41:50.634Z,23.02
2019-03-23T07:42:50.695Z,23.31
2019-03-23T07:43:50.689Z,23.86
2019-03-23T07:44:50.562Z,24.42
2019-03-23T07:45:50.492Z,24.89
2019-03-23T07:46:50.482Z,25.36
2019-03-23T07:47:50.528Z,25.80
2019-03-23T07:48:50.482Z,25.98
2019-03-23T07:49:50.509Z,26.28
2019-03-23T07:50:50.448Z,26.66
2019-03-23T07:51:50.422Z,26.99
2019-03-23T07:52:50.424Z,26.75
2019-03-23T07:53:50.469Z,26.45
2019-03-23T07:54:50.460Z,26.70
2019-03-23T07:55:50.395Z,27.20
2019-03-23T07:56:50.391Z,27.32
2019-03-23T07:57:50.366Z,27.37
2019-03-23T07:58:50.360Z,27.11
2019-03-23T07:59:50.340Z,26.96
2019-03-23T08:00:50.386Z,27.26
2019-03-23T08:01:50.337Z,27.40
2019-03-23T08:02:50.325Z,27.40
2019-03-23T08:03:50.290Z,27.21
2019-03-23T08:04:50.319Z,26.92
2019-03-23T08:05:50.334Z,27.35
2019-03-23T08:06:50.343Z,27.74
2019-03-23T08:07:50.258Z,28.07
2019-03-23T08:08:50.247Z,28.10
2019-03-23T08:09:50.233Z,28.49
2019-03-23T08:10:50.216Z,28.81
2019-03-23T08:11:50.208Z,28.76
2019-03-23T08:12:50.270Z,28.49
2019-03-23T08:13:50.193Z,28.37
2019-03-23T08:14:50.194Z,28.74
2019-03-23T08:15:50.170Z,28.66
2019-03-23T08:16:50.178Z,28.49
2019-03-23T08:17:50.161Z,28.37
2019-03-23T08:18:50.208Z,27.83
2019-03-23T08:19:50.130Z,28.20
2019-03-23T08:20:50.126Z,29.07
2019-03-23T08:21:50.106Z,29.82
2019-03-23T08:22:50.088Z,30.21
2019-03-23T08:23:50.138Z,30.24
2019-03-23T08:24:50.076Z,30.13
2019-03-23T08:25:50.143Z,30.57
2019-03-23T08:26:50.056Z,31.02
2019-03-23T08:27:50.062Z,31.12
2019-03-23T08:28:50.033Z,31.40
2019-03-23T08:29:50.019Z,31.49
2019-03-23T08:30:50.016Z,31.21
2019-03-23T08:31:50.065Z,31.36
2019-03-23T08:32:49.984Z,31.81
2019-03-23T08:33:51.996Z,32.03
2019-03-23T08:34:50.049Z,32.34
2019-03-23T08:35:49.962Z,32.75
2019-03-23T08:36:49.954Z,32.78
2019-03-23T08:37:49.994Z,32.55
2019-03-23T08:38:51.758Z,32.90
2019-03-23T08:39:49.953Z,33.00
2019-03-23T08:40:50.045Z,33.09
2019-03-23T08:41:49.895Z,32.97
2019-03-23T08:42:49.906Z,33.62
2019-03-23T08:43:49.865Z,33.68
2019-03-23T08:44:49.869Z,34.13
2019-03-23T08:45:50.149Z,34.36
2019-03-23T08:46:52.377Z,34.39
2019-03-23T08:47:49.835Z,34.32
2019-03-23T08:48:49.943Z,34.80
2019-03-23T08:49:49.855Z,35.30
2019-03-23T08:50:50.052Z,35.52
2019-03-23T08:51:50.661Z,35.68
2019-03-23T08:52:49.934Z,35.89
2019-03-23T08:53:49.904Z,35.82
2019-03-23T08:54:49.967Z,35.36
2019-03-23T08:55:49.890Z,35.00
2019-03-23T08:56:49.968Z,35.11
2019-03-23T08:57:50.204Z,35.33
2019-03-23T08:58:49.761Z,35.42
2019-03-23T08:59:49.766Z,35.31
2019-03-23T09:00:49.735Z,35.55
2019-03-23T09:01:49.723Z,35.86
2019-03-23T09:02:49.665Z,36.25
2019-03-23T09:03:52.658Z,36.59
2019-03-23T09:04:49.638Z,36.79
2019-03-23T09:05:49.628Z,36.64
2019-03-23T09:06:49.621Z,36.55
2019-03-23T09:07:49.678Z,36.36
2019-03-23T09:08:49.588Z,36.72
2019-03-23T09:09:58.880Z,36.79
2019-03-23T09:10:50.589Z,36.62
2019-03-23T09:11:49.575Z,36.67
2019-03-23T09:12:49.636Z,36.79
2019-03-23T09:13:49.576Z,37.03
2019-03-23T09:14:49.570Z,37.30
2019-03-23T09:15:49.529Z,37.28
2019-03-23T09:16:49.640Z,37.23
2019-03-23T09:17:49.508Z,37.03
2019-03-23T09:18:49.583Z,37.02
2019-03-23T09:19:49.478Z,36.96
2019-03-23T09:20:49.482Z,37.29
2019-03-23T09:21:49.463Z,37.53
2019-03-23T09:22:49.461Z,37.08
2019-03-23T09:23:49.522Z,37.23
2019-03-23T09:24:49.495Z,37.58
2019-03-23T09:25:49.422Z,37.93
2019-03-23T09:26:49.428Z,37.94
2019-03-23T09:27:49.397Z,37.10
2019-03-23T09:28:49.391Z,36.62
2019-03-23T09:29:49.422Z,36.42
2019-03-23T09:30:49.363Z,36.45
2019-03-23T09:31:49.353Z,36.35
2019-03-23T09:32:49.343Z,36.57
2019-03-23T09:33:49.354Z,36.43
2019-03-23T09:34:49.370Z,36.14
2019-03-23T09:35:49.435Z,36.45
2019-03-23T09:36:49.304Z,36.93
2019-03-23T09:37:49.295Z,36.80
2019-03-23T09:38:49.290Z,36.20
2019-03-23T09:39:49.269Z,35.60
2019-03-23T09:40:49.609Z,35.60
2019-03-23T09:41:49.274Z,35.90
2019-03-23T09:42:49.242Z,36.07
2019-03-23T09:43:49.238Z,36.27
2019-03-23T09:44:49.215Z,36.72
2019-03-23T09:45:49.433Z,37.25
2019-03-23T09:46:49.281Z,37.68
2019-03-23T09:47:49.206Z,37.94
2019-03-23T09:48:49.164Z,38.14
2019-03-23T09:49:49.177Z,38.14
2019-03-23T09:50:49.152Z,37.94
2019-03-23T09:51:49.188Z,37.72
2019-03-23T09:52:49.151Z,37.33
2019-03-23T09:53:49.140Z,37.44
2019-03-23T09:54:49.107Z,37.65
2019-03-23T09:55:49.108Z,38.34
2019-03-23T09:56:49.089Z,38.45
2019-03-23T09:57:49.154Z,38.19
2019-03-23T09:58:49.119Z,38.04
2019-03-23T09:59:49.118Z,38.11
2019-03-23T10:00:49.077Z,38.54
2019-03-23T10:01:49.043Z,38.46
2019-03-23T10:02:49.033Z,38.46
2019-03-23T10:03:49.123Z,38.45
2019-03-23T10:04:49.013Z,38.68
2019-03-23T10:05:49.027Z,38.68
2019-03-23T10:06:49.050Z,38.20
2019-03-23T10:07:48.976Z,38.27
2019-03-23T10:08:49.027Z,38.50
2019-03-23T10:09:48.974Z,38.30
2019-03-23T10:10:48.970Z,37.93
2019-03-23T10:11:49.013Z,37.70
2019-03-23T10:12:48.943Z,37.56
2019-03-23T10:13:48.925Z,37.47
2019-03-23T10:14:48.970Z,37.56
2019-03-23T10:15:48.926Z,37.70
2019-03-23T10:16:48.905Z,37.67
2019-03-23T10:17:48.915Z,37.64
2019-03-23T10:18:48.983Z,37.75
2019-03-23T10:19:48.864Z,37.68
2019-03-23T10:20:48.930Z,37.70
2019-03-23T10:21:48.843Z,37.36
2019-03-23T10:22:48.847Z,37.21
2019-03-23T10:23:48.829Z,36.54
2019-03-23T10:24:48.799Z,36.52
2019-03-23T10:25:48.879Z,36.73
2019-03-23T10:26:48.868Z,36.77
2019-03-23T10:27:48.783Z,36.86
2019-03-23T10:28:48.780Z,37.08
2019-03-23T10:29:48.749Z,37.40
2019-03-23T10:30:48.751Z,37.59
2019-03-23T10:31:48.821Z,37.48
2019-03-23T10:32:48.732Z,37.55
2019-03-23T10:33:48.792Z,37.53
2019-03-23T10:34:48.721Z,37.68
2019-03-23T10:35:48.732Z,37.94
2019-03-23T10:36:48.685Z,38.40
2019-03-23T10:37:48.679Z,38.54
2019-03-23T10:38:48.674Z,38.48
2019-03-23T10:39:48.700Z,38.50
2019-03-23T10:40:48.698Z,38.54
2019-03-23T10:41:48.630Z,38.68
2019-03-23T10:42:48.632Z,38.54
2019-03-23T10:43:48.612Z,38.76
2019-03-23T10:44:48.610Z,38.96
2019-03-23T10:45:48.652Z,39.14
2019-03-23T10:46:48.824Z,39.07
2019-03-23T10:47:48.721Z,38.84
2019-03-23T10:48:48.840Z,38.67
2019-03-23T10:49:48.561Z,38.82
2019-03-23T10:50:48.637Z,38.86
2019-03-23T10:51:48.542Z,38.91
2019-03-23T10:52:48.534Z,38.87
2019-03-23T10:53:48.514Z,38.79
2019-03-23T10:54:48.502Z,38.83
2019-03-23T10:55:48.502Z,38.30
2019-03-23T10:56:48.535Z,37.92
2019-03-23T10:57:48.483Z,37.53
2019-03-23T10:58:48.473Z,37.15
2019-03-23T10:59:48.536Z,37.07
2019-03-23T11:00:48.454Z,37.11
2019-03-23T11:01:48.427Z,36.93
2019-03-23T11:02:48.479Z,37.06
2019-03-23T11:03:48.414Z,37.14
2019-03-23T11:04:48.434Z,36.67
2019-03-23T11:05:48.386Z,36.68
2019-03-23T11:06:48.468Z,36.54
2019-03-23T11:07:48.436Z,36.46
2019-03-23T11:08:48.380Z,36.28
2019-03-23T11:09:48.359Z,36.08
2019-03-23T11:10:48.345Z,36.05
2019-03-23T11:11:48.332Z,35.64
2019-03-23T11:12:48.731Z,35.85
2019-03-23T11:13:48.318Z,35.95
2019-03-23T11:14:48.316Z,36.02
2019-03-23T11:15:48.315Z,36.30
2019-03-23T11:16:48.296Z,36.42
2019-03-23T11:17:48.271Z,36.51
2019-03-23T11:18:48.349Z,36.30
2019-03-23T11:19:48.253Z,36.36
2019-03-23T11:20:48.253Z,36.18
2019-03-23T11:21:48.272Z,35.98
2019-03-23T11:22:48.222Z,35.71
2019-03-23T11:23:48.220Z,35.83
2019-03-23T11:24:48.274Z,35.95
2019-03-23T11:25:48.199Z,36.09
2019-03-23T11:26:48.183Z,35.88
2019-03-23T11:27:48.175Z,35.67
2019-03-23T11:28:48.165Z,35.44
2019-03-23T11:29:48.208Z,35.42
2019-03-23T11:30:48.139Z,35.53
2019-03-23T11:31:48.135Z,35.26
2019-03-23T11:32:48.135Z,35.39
2019-03-23T11:33:48.121Z,35.33
2019-03-23T11:34:48.152Z,35.31
2019-03-23T11:35:57.407Z,35.51
2019-03-23T11:36:49.086Z,35.42
2019-03-23T11:37:48.230Z,35.24
2019-03-23T11:38:48.065Z,35.29
2019-03-23T11:39:48.062Z,35.27
2019-03-23T11:40:53.815Z,34.88
2019-03-23T11:41:49.071Z,34.29
2019-03-23T11:42:50.287Z,34.05
2019-03-23T11:43:48.012Z,34.36
2019-03-23T11:44:48.094Z,34.71
2019-03-23T11:45:48.006Z,34.61
2019-03-23T11:46:48.376Z,34.60
2019-03-23T11:47:48.017Z,34.62
2019-03-23T11:48:47.968Z,34.35
2019-03-23T11:49:47.953Z,34.38
2019-03-23T11:50:47.945Z,33.92
2019-03-23T11:51:47.958Z,33.96
2019-03-23T11:52:47.920Z,34.13
2019-03-23T11:53:47.999Z,34.13
2019-03-23T11:54:47.933Z,34.14
2019-03-23T11:55:47.905Z,33.98
2019-03-23T11:56:47.880Z,33.71
2019-03-23T11:57:47.883Z,33.46
2019-03-23T11:58:47.869Z,33.19
2019-03-23T11:59:47.903Z,32.71
2019-03-23T12:00:47.988Z,32.14
2019-03-23T12:01:51.723Z,32.14
2019-03-23T12:02:47.849Z,32.01
2019-03-23T12:03:47.824Z,31.51
2019-03-23T12:04:47.861Z,31.18
2019-03-23T12:05:47.839Z,30.88
2019-03-23T12:06:47.815Z,30.84
2019-03-23T12:07:47.773Z,30.97
2019-03-23T12:08:47.759Z,30.68
2019-03-23T12:09:47.758Z,30.78
2019-03-23T12:10:47.792Z,30.81
2019-03-23T12:11:47.929Z,30.83
2019-03-23T12:12:47.730Z,30.54
2019-03-23T12:13:47.723Z,30.80
2019-03-23T12:14:47.696Z,30.68
2019-03-23T12:15:47.741Z,30.21
2019-03-23T12:16:47.672Z,30.09
2019-03-23T12:17:47.674Z,30.32
2019-03-23T12:18:47.672Z,30.34
2019-03-23T12:19:47.652Z,30.27
2019-03-23T12:20:47.639Z,30.23
2019-03-23T12:21:47.690Z,30.12
2019-03-23T12:22:47.612Z,30.10
2019-03-23T12:23:47.610Z,30.09
2019-03-23T12:24:47.602Z,29.93
2019-03-23T12:25:47.618Z,29.59
2019-03-23T12:26:47.613Z,29.08
2019-03-23T12:27:47.634Z,28.39
2019-03-23T12:28:47.584Z,27.89
2019-03-23T12:29:47.552Z,27.80
2019-03-23T12:30:47.554Z,27.98
2019-03-23T12:31:47.538Z,27.78
2019-03-23T12:32:47.562Z,27.92
2019-03-23T12:33:47.525Z,27.96
2019-03-23T12:34:47.523Z,27.51
2019-03-23T12:35:47.481Z,26.88
2019-03-23T12:36:47.476Z,26.62
2019-03-23T12:37:47.533Z,26.65
2019-03-23T12:38:47.518Z,26.66
2019-03-23T12:39:47.435Z,26.88
2019-03-23T12:40:47.436Z,26.92
2019-03-23T12:41:47.422Z,26.65
2019-03-23T12:42:47.432Z,26.45
2019-03-23T12:43:47.474Z,26.66
2019-03-23T12:44:47.419Z,26.81
2019-03-23T12:45:47.384Z,26.84
2019-03-23T12:46:48.496Z,26.65
2019-03-23T12:47:47.367Z,26.45
2019-03-23T12:48:47.351Z,26.52
2019-03-23T12:49:47.418Z,26.77
2019-03-23T12:50:47.340Z,26.70
2019-03-23T12:51:47.325Z,26.28
2019-03-23T12:52:47.295Z,26.05
2019-03-23T12:53:47.302Z,25.80
2019-03-23T12:54:47.278Z,25.72
2019-03-23T12:55:47.308Z,25.68
2019-03-23T12:56:47.262Z,25.63
2019-03-23T12:57:47.271Z,25.81
2019-03-23T12:58:47.250Z,25.81
2019-03-23T12:59:47.252Z,25.63
2019-03-23T13:00:47.272Z,25.59
2019-03-23T13:01:47.218Z,25.83
2019-03-23T13:02:47.198Z,25.98
2019-03-23T13:03:47.210Z,25.88
2019-03-23T13:04:47.174Z,25.48
2019-03-23T13:05:47.190Z,25.04
2019-03-23T13:06:47.210Z,24.81